Time;durP1;ratioP1;P1;durP2;ratioP2;P2;SDS_P1;SDS_P2;PMS_P1;PMS_P2;Temp;Humidity;BMP_temperature;BMP_pressure;BME280_temperature;BME280_humidity;BME280_pressure;Samples;Min_cycle;Max_cycle;Signal;HPM_P1;HPM_P2
2022/10/07 00:01:48;;;;;;;2.15;1.60;;;18.20;91.10;;;;;;5070720;28;20189;-70
2022/10/07 00:04:14;;;;;;;2.40;1.63;;;18.20;91.10;;;;;;5071522;28;20268;-70
2022/10/07 00:06:40;;;;;;;2.92;1.52;;;18.20;91.10;;;;;;5053482;28;20209;-70
2022/10/07 00:09:05;;;;;;;2.50;1.90;;;18.20;91.00;;;;;;5087403;28;20196;-70
2022/10/07 00:11:31;;;;;;;2.13;1.80;;;18.20;91.00;;;;;;5087235;28;20189;-71
2022/10/07 00:14:06;;;;;;;1.48;1.30;;;18.10;91.00;;;;;;5070423;28;20174;-70
2022/10/07 00:16:40;;;;;;;2.25;1.75;;;18.20;91.00;;;;;;5070034;28;20560;-70
2022/10/07 00:19:11;;;;;;;1.98;1.75;;;18.20;91.10;;;;;;5087246;28;20181;-70
2022/10/07 00:21:38;;;;;;;2.13;1.70;;;18.20;91.10;;;;;;5089383;28;20182;-71
2022/10/07 00:24:06;;;;;;;2.42;1.60;;;18.20;91.10;;;;;;5075220;28;20698;-70
2022/10/07 00:26:35;;;;;;;1.95;1.52;;;18.20;91.10;;;;;;5090756;28;20193;-70
2022/10/07 00:29:03;;;;;;;1.77;1.30;;;18.20;91.00;;;;;;5090756;28;20231;-71
2022/10/07 00:31:34;;;;;;;2.70;1.80;;;18.20;91.00;;;;;;5073812;28;20193;-70
2022/10/07 00:34:01;;;;;;;2.10;1.80;;;18.20;91.00;;;;;;5075088;28;20172;-70
2022/10/07 00:36:34;;;;;;;2.00;1.33;;;18.20;91.00;;;;;;5090370;28;20228;-70
2022/10/07 00:39:10;;;;;;;1.95;1.73;;;18.20;91.00;;;;;;5087543;28;20184;-71
2022/10/07 00:41:40;;;;;;;1.63;1.52;;;18.20;91.00;;;;;;5070356;28;20183;-70
2022/10/07 00:44:30;;;;;;;2.20;1.30;;;18.20;90.90;;;;;;5070180;28;20193;-70
2022/10/07 00:47:02;;;;;;;1.60;1.50;;;18.20;90.90;;;;;;5053605;28;20246;-70
2022/10/07 00:49:30;;;;;;;1.60;1.50;;;18.20;90.90;;;;;;5070603;28;20187;-70
2022/10/07 00:51:57;;;;;;;1.73;1.63;;;18.20;90.90;;;;;;5070428;28;20187;-71
2022/10/07 00:54:23;;;;;;;1.90;1.60;;;18.20;90.80;;;;;;5070375;28;20269;-70
2022/10/07 00:56:51;;;;;;;2.53;1.60;;;18.20;90.90;;;;;;5036601;28;20202;-70
2022/10/07 00:59:19;;;;;;;2.28;1.60;;;18.20;90.90;;;;;;5070118;28;20182;-70
2022/10/07 01:01:45;;;;;;;1.80;1.60;;;18.20;90.90;;;;;;5070538;28;20193;-70
2022/10/07 01:04:13;;;;;;;2.13;1.65;;;18.20;91.20;;;;;;5070196;28;20182;-70
2022/10/07 01:06:40;;;;;;;2.25;1.63;;;18.20;90.90;;;;;;5053158;28;20241;-70
2022/10/07 01:09:09;;;;;;;2.10;1.60;;;18.20;90.90;;;;;;5070145;28;20186;-70
2022/10/07 01:12:18;;;;;;;1.80;1.40;;;18.20;90.80;;;;;;5069692;28;20639;-70
2022/10/07 01:15:25;;;;;;;1.70;1.40;;;18.20;90.80;;;;;;5070535;28;20244;-70
2022/10/07 01:18:22;;;;;;;1.60;1.45;;;18.20;90.80;;;;;;5036241;28;20204;-70
2022/10/07 01:21:17;;;;;;;2.30;1.50;;;18.10;90.80;;;;;;5036577;28;20174;-70
2022/10/07 01:24:20;;;;;;;1.98;1.73;;;18.20;90.80;;;;;;5053021;28;20179;-70
2022/10/07 01:26:56;;;;;;;1.27;1.17;;;18.20;90.80;;;;;;5036306;28;20224;-70
2022/10/07 01:29:42;;;;;;;1.52;1.40;;;18.10;90.80;;;;;;5052738;28;20186;-70
2022/10/07 01:32:24;;;;;;;1.55;1.40;;;18.20;90.70;;;;;;5035324;28;20210;-70
2022/10/07 01:34:54;;;;;;;1.70;1.60;;;18.20;90.70;;;;;;5069544;28;20261;-70
2022/10/07 01:37:23;;;;;;;1.58;1.40;;;18.20;90.70;;;;;;5052392;28;20207;-71
2022/10/07 01:40:01;;;;;;;1.50;1.40;;;18.20;90.70;;;;;;5052497;28;20248;-71
2022/10/07 01:42:28;;;;;;;1.30;1.10;;;18.20;90.70;;;;;;5056260;28;20724;-70
2022/10/07 01:44:57;;;;;;;1.92;1.50;;;18.20;90.60;;;;;;5055672;28;20275;-70
2022/10/07 01:47:27;;;;;;;1.52;1.40;;;18.20;90.60;;;;;;5055740;28;20320;-70
2022/10/07 01:49:53;;;;;;;2.00;1.58;;;18.10;90.60;;;;;;5056060;28;20182;-70
2022/10/07 01:52:55;;;;;;;1.63;1.48;;;18.10;90.50;;;;;;5072273;28;20673;-70
2022/10/07 01:55:42;;;;;;;1.40;1.30;;;18.10;90.60;;;;;;5055646;28;20182;-70
2022/10/07 01:58:48;;;;;;;1.38;1.27;;;18.20;90.60;;;;;;5056060;28;20174;-69
2022/10/07 02:01:39;;;;;;;2.00;1.70;;;18.10;90.50;;;;;;5055592;28;20564;-70
2022/10/07 02:04:24;;;;;;;2.17;1.42;;;18.10;90.50;;;;;;5072041;28;20550;-71
2022/10/07 02:06:59;;;;;;;1.70;1.50;;;18.10;90.50;;;;;;5055301;28;20266;-70
2022/10/07 02:09:30;;;;;;;3.00;1.63;;;18.20;90.50;;;;;;5055433;28;20173;-70
2022/10/07 02:12:22;;;;;;;2.35;1.50;;;18.10;90.50;;;;;;5055792;28;20184;-71
2022/10/07 02:15:12;;;;;;;1.60;1.50;;;18.10;90.50;;;;;;5055571;28;20178;-71
2022/10/07 02:17:46;;;;;;;1.30;1.20;;;18.10;90.40;;;;;;5062145;22;20753;-68
2022/10/07 02:20:15;;;;;;;1.80;1.13;;;18.10;90.40;;;;;;5035453;28;20272;-67
2022/10/07 02:22:45;;;;;;;2.05;1.50;;;18.10;90.40;;;;;;5052032;28;20273;-67
2022/10/07 02:25:15;;;;;;;2.28;1.67;;;18.10;90.40;;;;;;5035012;28;20211;-68
2022/10/07 02:27:45;;;;;;;1.50;1.40;;;18.20;90.40;;;;;;5053886;28;20198;-67
2022/10/07 02:30:16;;;;;;;2.05;1.15;;;18.20;90.40;;;;;;5035371;28;20239;-68
2022/10/07 02:32:59;;;;;;;1.42;1.20;;;18.10;90.40;;;;;;5051622;28;20198;-68
2022/10/07 02:35:35;;;;;;;1.70;1.40;;;18.10;90.40;;;;;;5051424;28;20190;-68
2022/10/07 02:38:08;;;;;;;1.50;1.40;;;18.10;90.40;;;;;;5051788;28;20213;-68
2022/10/07 02:40:44;;;;;;;2.53;1.33;;;18.10;90.40;;;;;;5034951;28;20178;-68
2022/10/07 02:43:55;;;;;;;1.48;1.38;;;18.10;90.30;;;;;;5051134;28;20186;-67
2022/10/07 02:46:50;;;;;;;1.70;1.35;;;18.10;90.40;;;;;;5033775;28;20230;-68
2022/10/07 02:49:20;;;;;;;1.40;1.30;;;18.10;90.30;;;;;;5034978;28;20190;-68
2022/10/07 02:52:00;;;;;;;1.70;1.58;;;18.10;90.30;;;;;;5034650;28;20186;-68
2022/10/07 02:54:40;;;;;;;1.65;1.30;;;18.10;90.30;;;;;;5051343;28;20189;-67
2022/10/07 02:57:09;;;;;;;1.40;1.23;;;18.10;90.30;;;;;;5034708;28;20202;-68
2022/10/07 02:59:38;;;;;;;1.60;1.23;;;18.10;90.20;;;;;;5051251;28;20190;-67
2022/10/07 03:02:11;;;;;;;1.38;1.20;;;18.10;90.20;;;;;;5051179;28;20265;-69
2022/10/07 03:04:37;;;;;;;1.60;1.50;;;18.10;90.20;;;;;;5051287;28;20206;-67
2022/10/07 03:07:04;;;;;;;2.13;1.40;;;18.10;90.20;;;;;;5051207;28;20231;-68
2022/10/07 03:09:30;;;;;;;1.02;1.00;;;18.10;90.20;;;;;;5050967;28;20189;-68
2022/10/07 03:11:56;;;;;;;1.27;1.17;;;18.10;90.20;;;;;;5051002;28;20221;-68
2022/10/07 03:14:24;;;;;;;1.40;1.30;;;18.10;90.20;;;;;;5034592;28;20194;-66
2022/10/07 03:16:51;;;;;;;1.38;1.27;;;18.10;90.20;;;;;;5033983;28;20209;-68
2022/10/07 03:19:17;;;;;;;1.40;1.30;;;18.10;90.20;;;;;;5051356;28;20167;-67
2022/10/07 03:21:50;;;;;;;1.25;1.15;;;18.10;90.20;;;;;;5035522;28;20178;-67
2022/10/07 03:24:17;;;;;;;1.48;1.20;;;18.10;90.20;;;;;;5034622;28;20183;-67
2022/10/07 03:26:44;;;;;;;1.40;1.20;;;18.10;90.20;;;;;;5034620;28;20178;-68
2022/10/07 03:29:12;;;;;;;1.70;1.30;;;18.10;90.20;;;;;;5051186;28;20186;-67
2022/10/07 03:31:41;;;;;;;1.40;1.30;;;18.10;90.10;;;;;;5052008;28;20182;-67
2022/10/07 03:34:08;;;;;;;1.40;1.15;;;18.10;90.10;;;;;;5034310;28;20189;-68
2022/10/07 03:36:35;;;;;;;1.25;1.15;;;18.10;90.10;;;;;;5050570;28;20186;-67
2022/10/07 03:39:01;;;;;;;1.23;1.13;;;18.10;90.10;;;;;;5051021;28;20182;-68
2022/10/07 03:41:28;;;;;;;1.20;1.10;;;18.10;90.00;;;;;;5034778;28;20183;-68
2022/10/07 03:43:58;;;;;;;1.60;1.50;;;18.10;90.00;;;;;;5050955;28;20274;-68
2022/10/07 03:46:25;;;;;;;1.73;1.63;;;18.10;90.00;;;;;;5034466;28;20213;-67
2022/10/07 03:48:51;;;;;;;1.55;1.45;;;18.10;90.00;;;;;;5034478;28;20206;-68
2022/10/07 03:51:17;;;;;;;1.95;1.80;;;18.10;90.00;;;;;;5051547;28;20175;-68
2022/10/07 03:53:44;;;;;;;1.70;1.60;;;18.10;90.30;;;;;;5030316;28;20179;-66
2022/10/07 03:56:10;;;;;;;1.60;1.50;;;18.10;90.00;;;;;;5033152;28;20266;-67
2022/10/07 03:58:38;;;;;;;1.30;1.20;;;18.10;89.90;;;;;;5018590;28;20230;-68
2022/10/07 04:01:11;;;;;;;1.55;1.30;;;18.10;90.00;;;;;;5034948;28;20179;-67
2022/10/07 04:03:43;;;;;;;2.25;1.75;;;18.10;89.90;;;;;;5018746;28;20270;-68
2022/10/07 04:06:09;;;;;;;1.50;1.40;;;18.00;90.00;;;;;;5018021;28;20633;-68
2022/10/07 04:08:35;;;;;;;1.67;1.58;;;18.10;90.00;;;;;;5018146;28;20192;-67
2022/10/07 04:11:03;;;;;;;2.10;1.60;;;18.10;89.90;;;;;;5018274;28;20194;-68
2022/10/07 04:13:30;;;;;;;1.45;1.35;;;18.10;89.90;;;;;;5050949;28;20214;-68
2022/10/07 04:15:57;;;;;;;1.90;1.48;;;18.10;90.00;;;;;;5017766;28;20253;-67
2022/10/07 04:18:23;;;;;;;1.60;1.50;;;18.10;89.90;;;;;;5017927;28;20211;-68
2022/10/07 04:20:51;;;;;;;2.78;1.65;;;18.00;89.70;;;;;;5034099;28;20184;-68
2022/10/07 04:23:17;;;;;;;1.63;1.52;;;18.10;89.70;;;;;;5034114;28;20218;-68
2022/10/07 04:25:45;;;;;;;2.13;1.60;;;18.10;89.60;;;;;;5034119;28;20207;-66
2022/10/07 04:28:22;;;;;;;1.77;1.60;;;18.10;89.50;;;;;;5034054;28;20752;-68
2022/10/07 04:30:52;;;;;;;1.80;1.70;;;18.10;89.50;;;;;;5033964;28;20167;-68
2022/10/07 04:33:23;;;;;;;1.85;1.67;;;18.00;89.30;;;;;;5034174;28;20237;-68
2022/10/07 04:35:51;;;;;;;1.52;1.42;;;18.00;89.30;;;;;;5033708;28;20190;-66
2022/10/07 04:38:18;;;;;;;1.70;1.60;;;18.00;89.20;;;;;;5017601;28;20294;-67
2022/10/07 04:40:49;;;;;;;1.73;1.52;;;18.10;89.10;;;;;;5017718;28;20686;-68
2022/10/07 04:43:23;;;;;;;2.45;1.65;;;18.00;89.10;;;;;;5050360;28;20191;-67
2022/10/07 04:46:07;;;;;;;1.75;1.60;;;18.00;89.20;;;;;;5018388;28;20222;-66
2022/10/07 04:48:36;;;;;;;1.58;1.40;;;18.00;89.20;;;;;;5018422;28;20682;-68
2022/10/07 04:51:08;;;;;;;1.60;1.50;;;18.00;89.20;;;;;;5067191;28;20187;-68
2022/10/07 04:53:36;;;;;;;2.20;1.70;;;18.00;89.10;;;;;;5053768;28;20175;-68
2022/10/07 04:56:04;;;;;;;2.00;1.80;;;18.00;89.10;;;;;;5036474;28;20174;-67
2022/10/07 04:58:31;;;;;;;1.85;1.63;;;18.00;89.10;;;;;;5053215;28;20704;-68
2022/10/07 05:00:59;;;;;;;1.98;1.60;;;18.00;89.10;;;;;;5053380;28;20191;-68
2022/10/07 05:03:28;;;;;;;1.92;1.75;;;18.00;89.00;;;;;;5053250;28;20262;-66
2022/10/07 05:06:02;;;;;;;1.48;1.38;;;18.00;89.00;;;;;;5053172;28;20213;-67
2022/10/07 05:08:27;;;;;;;1.70;1.50;;;18.00;89.00;;;;;;5036272;28;20202;-67
2022/10/07 05:10:58;;;;;;;2.15;1.52;;;18.00;89.10;;;;;;5036665;28;20179;-68
2022/10/07 05:13:26;;;;;;;1.95;1.65;;;18.00;89.10;;;;;;5053276;28;20189;-65
2022/10/07 05:16:02;;;;;;;1.67;1.40;;;18.00;89.20;;;;;;5036586;28;20190;-68
2022/10/07 05:18:29;;;;;;;1.85;1.50;;;18.00;89.30;;;;;;5036052;28;20224;-66
2022/10/07 05:21:06;;;;;;;2.17;1.60;;;18.00;89.10;;;;;;5036992;28;20259;-69
2022/10/07 05:23:36;;;;;;;1.58;1.40;;;18.00;89.10;;;;;;5052976;28;20180;-68
2022/10/07 05:26:09;;;;;;;2.15;1.55;;;18.00;89.10;;;;;;5036494;28;20210;-68
2022/10/07 05:28:38;;;;;;;2.10;1.40;;;18.00;89.00;;;;;;5036255;28;20209;-68
2022/10/07 05:31:12;;;;;;;1.67;1.55;;;18.00;88.80;;;;;;5052899;28;20186;-68
2022/10/07 05:33:42;;;;;;;2.28;1.40;;;18.00;88.70;;;;;;5053097;28;20170;-65
2022/10/07 05:36:11;;;;;;;1.88;1.67;;;18.00;88.80;;;;;;5052663;28;20190;-66
2022/10/07 05:38:37;;;;;;;2.00;1.45;;;18.00;88.60;;;;;;5035956;28;20213;-68
2022/10/07 05:41:06;;;;;;;1.83;1.50;;;18.00;88.50;;;;;;5035894;28;20634;-68
2022/10/07 05:43:40;;;;;;;1.75;1.63;;;18.00;88.50;;;;;;5052833;28;20182;-67
2022/10/07 05:46:13;;;;;;;2.55;1.83;;;18.00;88.40;;;;;;5035825;28;20222;-66
2022/10/07 05:48:47;;;;;;;1.50;1.33;;;18.00;88.30;;;;;;5052354;28;20248;-67
2022/10/07 05:51:13;;;;;;;2.35;1.92;;;18.00;88.40;;;;;;5052700;28;20185;-68
2022/10/07 05:53:40;;;;;;;1.73;1.63;;;18.00;88.40;;;;;;5036104;28;20182;-68
2022/10/07 05:56:09;;;;;;;1.50;1.40;;;18.00;88.40;;;;;;5052049;28;20225;-69
2022/10/07 05:58:37;;;;;;;2.00;1.70;;;18.00;88.20;;;;;;5035711;28;20207;-67
2022/10/07 06:01:06;;;;;;;1.98;1.77;;;18.00;88.00;;;;;;5035610;28;20187;-67
2022/10/07 06:03:33;;;;;;;3.10;1.80;;;18.00;88.00;;;;;;5035538;28;20308;-69
2022/10/07 06:06:00;;;;;;;3.03;1.52;;;17.90;88.00;;;;;;5052218;28;20302;-67
2022/10/07 06:08:27;;;;;;;1.65;1.55;;;18.00;88.00;;;;;;5051845;28;20224;-68
2022/10/07 06:13:52;;;;;;;2.00;1.80;;;18.00;88.00;;;;;;5052122;28;20187;-68
2022/10/07 06:16:19;;;;;;;1.73;1.60;;;18.00;87.90;;;;;;5035493;28;20653;-66
2022/10/07 06:18:49;;;;;;;1.77;1.60;;;18.00;87.80;;;;;;5035025;28;20215;-68
2022/10/07 06:21:15;;;;;;;2.67;1.60;;;18.00;87.60;;;;;;5051975;28;20182;-68
2022/10/07 06:23:40;;;;;;;1.80;1.50;;;18.00;87.50;;;;;;5051875;28;20192;-68
2022/10/07 06:26:10;;;;;;;2.08;1.63;;;18.00;87.70;;;;;;5051732;28;20218;-67
2022/10/07 06:28:40;;;;;;;2.05;1.73;;;18.00;87.60;;;;;;5035030;28;20628;-68
2022/10/07 06:31:15;;;;;;;1.60;1.50;;;18.00;87.60;;;;;;5035131;28;20193;-69
2022/10/07 06:33:42;;;;;;;1.52;1.35;;;18.00;87.50;;;;;;5035077;28;20167;-68
2022/10/07 06:36:13;;;;;;;1.70;1.60;;;18.00;87.50;;;;;;5067901;28;20182;-68
2022/10/07 06:38:47;;;;;;;1.98;1.77;;;18.00;87.50;;;;;;5051212;28;20202;-68
2022/10/07 06:41:14;;;;;;;1.60;1.50;;;18.00;87.30;;;;;;5034768;28;20183;-68
2022/10/07 06:43:41;;;;;;;2.63;1.65;;;18.00;87.30;;;;;;5051557;28;20174;-68
2022/10/07 06:46:18;;;;;;;1.70;1.40;;;18.00;87.30;;;;;;5035025;28;20206;-67
2022/10/07 06:48:46;;;;;;;1.65;1.55;;;18.00;87.30;;;;;;5034982;28;20292;-67
2022/10/07 06:51:18;;;;;;;1.45;1.35;;;18.00;87.30;;;;;;5051580;28;20178;-69
2022/10/07 06:53:45;;;;;;;1.60;1.50;;;18.00;87.30;;;;;;5034821;28;20183;-67
2022/10/07 06:56:13;;;;;;;1.67;1.58;;;18.00;87.30;;;;;;5051177;28;20269;-66
2022/10/07 06:58:42;;;;;;;2.58;1.65;;;18.00;87.30;;;;;;5031109;28;20207;-68
2022/10/07 07:01:09;;;;;;;1.70;1.60;;;18.00;87.40;;;;;;5031131;28;20191;-67
2022/10/07 07:03:35;;;;;;;1.77;1.67;;;18.00;87.50;;;;;;5031241;28;20233;-68
2022/10/07 07:06:01;;;;;;;2.35;1.77;;;18.00;87.50;;;;;;5047383;28;20218;-68
2022/10/07 07:08:33;;;;;;;1.80;1.70;;;18.00;87.60;;;;;;5031618;28;20195;-68
2022/10/07 07:14:04;;;;;;;2.47;2.20;;;18.00;87.80;;;;;;5031256;28;20207;-68
2022/10/07 07:16:31;;;;;;;1.98;1.80;;;18.00;87.70;;;;;;5047351;28;20233;-68
2022/10/07 07:19:07;;;;;;;2.53;1.85;;;18.00;87.70;;;;;;5030945;28;20225;-68
2022/10/07 07:21:37;;;;;;;2.45;2.25;;;18.00;87.70;;;;;;5031043;28;20215;-68
2022/10/07 07:24:04;;;;;;;2.33;1.95;;;18.00;87.70;;;;;;5034270;28;20182;-67
2022/10/07 07:26:31;;;;;;;2.30;2.10;;;18.00;87.80;;;;;;5050797;28;20210;-69
2022/10/07 07:29:01;;;;;;;2.28;2.00;;;18.00;88.00;;;;;;5050965;28;20281;-67
2022/10/07 07:31:36;;;;;;;2.80;2.60;;;18.00;88.00;;;;;;5038726;28;20183;-68
2022/10/07 07:34:07;;;;;;;2.90;2.30;;;18.00;88.10;;;;;;5054995;28;20174;-68
2022/10/07 07:36:35;;;;;;;3.72;2.15;;;18.00;88.00;;;;;;5054895;28;20201;-67
2022/10/07 07:39:09;;;;;;;2.35;2.15;;;18.00;88.00;;;;;;5038353;28;20178;-68
2022/10/07 07:41:45;;;;;;;2.72;2.42;;;18.00;88.10;;;;;;5038316;28;20174;-68
2022/10/07 07:44:16;;;;;;;3.42;2.28;;;18.00;88.00;;;;;;5038204;28;20170;-68
2022/10/07 07:46:52;;;;;;;2.70;2.30;;;18.00;88.00;;;;;;5037692;28;20210;-68
2022/10/07 07:49:21;;;;;;;4.20;2.33;;;18.00;88.00;;;;;;5038241;28;20197;-68
2022/10/07 07:51:48;;;;;;;4.43;2.47;;;18.10;88.20;;;;;;5038236;28;20230;-68
2022/10/07 07:54:21;;;;;;;2.40;2.17;;;18.00;88.30;;;;;;5054500;28;20176;-68
2022/10/07 07:56:48;;;;;;;2.72;2.30;;;18.00;88.30;;;;;;5054405;28;20225;-69
2022/10/07 07:59:15;;;;;;;2.40;2.20;;;18.00;88.40;;;;;;5038026;28;20182;-68
2022/10/07 08:01:44;;;;;;;2.80;2.33;;;18.00;88.30;;;;;;5054626;28;20179;-68
2022/10/07 08:04:12;;;;;;;3.42;2.63;;;18.00;88.50;;;;;;5055640;28;20163;-68
2022/10/07 08:06:39;;;;;;;3.75;3.00;;;18.00;88.50;;;;;;5053962;28;20214;-68
2022/10/07 08:09:06;;;;;;;3.45;2.95;;;18.00;88.50;;;;;;5054508;28;20282;-68
2022/10/07 08:11:33;;;;;;;3.08;2.78;;;18.00;88.50;;;;;;5054168;28;20257;-67
2022/10/07 08:14:02;;;;;;;3.13;2.80;;;18.00;88.60;;;;;;5054384;28;20178;-69
2022/10/07 08:16:29;;;;;;;2.90;2.60;;;18.00;88.60;;;;;;5033899;28;20178;-68
2022/10/07 08:18:57;;;;;;;2.70;2.50;;;18.10;88.80;;;;;;5084636;22;20256;-71
2022/10/07 08:21:27;;;;;;;3.72;3.00;;;18.00;88.80;;;;;;5056875;28;20178;-71
2022/10/07 08:23:58;;;;;;;3.20;2.50;;;18.00;88.90;;;;;;5073522;28;20181;-72
2022/10/07 08:26:31;;;;;;;3.65;2.90;;;18.00;88.80;;;;;;5073821;28;20213;-70
2022/10/07 08:29:00;;;;;;;3.03;2.67;;;18.00;88.90;;;;;;5073569;28;20209;-71
2022/10/07 08:31:28;;;;;;;2.92;2.63;;;18.00;89.00;;;;;;5073210;28;20277;-71
2022/10/07 08:33:57;;;;;;;4.32;3.20;;;18.00;88.80;;;;;;5073171;28;20178;-71
2022/10/07 08:36:25;;;;;;;3.65;3.17;;;18.00;89.70;;;;;;5072853;28;20194;-71
2022/10/07 08:38:52;;;;;;;4.40;2.95;;;18.00;88.80;;;;;;5074367;28;20280;-71
2022/10/07 08:41:32;;;;;;;3.95;3.03;;;18.00;89.00;;;;;;5072243;28;20190;-71
2022/10/07 08:44:19;;;;;;;3.15;2.83;;;18.10;89.30;;;;;;5073090;28;20273;-70
2022/10/07 08:47:26;;;;;;;3.40;3.00;;;18.10;89.20;;;;;;5072627;28;20213;-72
2022/10/07 08:50:29;;;;;;;3.15;2.80;;;18.10;89.30;;;;;;5073212;28;20205;-72
2022/10/07 08:53:07;;;;;;;4.15;3.15;;;18.10;89.30;;;;;;5061075;28;20186;-72
2022/10/07 08:55:41;;;;;;;3.80;3.33;;;18.00;89.10;;;;;;5036466;28;20197;-72
2022/10/07 08:58:13;;;;;;;3.67;3.08;;;18.10;90.00;;;;;;5053948;28;20179;-71
2022/10/07 09:00:58;;;;;;;4.50;3.50;;;18.10;89.20;;;;;;5053003;28;20244;-71
2022/10/07 09:04:01;;;;;;;4.05;3.40;;;18.10;89.30;;;;;;5036032;28;20187;-71
2022/10/07 09:07:36;;;;;;;4.00;3.60;;;18.10;89.40;;;;;;5035804;28;20217;-70
2022/10/07 09:10:07;;;;;;;3.88;3.40;;;18.10;89.60;;;;;;5045010;28;20218;-71
2022/10/07 09:12:49;;;;;;;5.00;3.65;;;18.10;89.30;;;;;;5036763;28;20182;-71
2022/10/07 09:15:46;;;;;;;4.82;3.70;;;18.10;89.30;;;;;;5070135;28;20205;-71
2022/10/07 09:18:22;;;;;;;3.85;3.40;;;18.10;89.60;;;;;;5054158;28;20179;-71
2022/10/07 09:20:55;;;;;;;5.15;3.35;;;18.10;89.50;;;;;;5036305;28;20186;-71
2022/10/07 09:23:30;;;;;;;3.78;3.38;;;18.10;89.60;;;;;;5052993;28;20174;-70
2022/10/07 09:25:56;;;;;;;3.63;3.28;;;18.10;89.70;;;;;;5036275;28;20313;-71
2022/10/07 09:28:28;;;;;;;3.42;2.92;;;18.10;89.60;;;;;;5052522;28;20232;-71
2022/10/07 09:30:59;;;;;;;3.85;3.40;;;18.10;89.80;;;;;;5053158;28;20186;-71
2022/10/07 09:33:28;;;;;;;3.92;3.25;;;18.10;89.60;;;;;;5035963;28;20187;-70
2022/10/07 09:36:07;;;;;;;3.95;3.65;;;18.10;89.60;;;;;;5052489;28;20191;-71
2022/10/07 09:38:35;;;;;;;3.45;3.15;;;18.10;89.60;;;;;;5035896;28;20221;-70
2022/10/07 09:41:34;;;;;;;3.70;3.30;;;18.10;89.60;;;;;;5052593;28;20205;-71
2022/10/07 09:44:26;;;;;;;3.95;3.35;;;18.10;89.70;;;;;;5069097;28;20212;-71
2022/10/07 09:47:12;;;;;;;3.92;3.22;;;18.10;89.90;;;;;;5035789;28;20198;-72
2022/10/07 09:49:45;;;;;;;3.33;2.95;;;18.10;90.00;;;;;;5036192;28;20210;-71
2022/10/07 09:52:22;;;;;;;4.05;3.47;;;18.10;90.00;;;;;;5036020;28;20269;-71
2022/10/07 09:54:52;;;;;;;3.67;3.08;;;18.10;89.90;;;;;;5050483;28;20269;-71
2022/10/07 09:57:24;;;;;;;3.10;2.90;;;18.10;89.90;;;;;;5062680;28;20267;-71
2022/10/07 09:59:49;;;;;;;4.28;3.22;;;18.10;90.00;;;;;;5066959;28;20229;-71
2022/10/07 10:02:24;;;;;;;3.72;3.30;;;18.10;90.00;;;;;;5058079;28;20232;-71
2022/10/07 10:04:54;;;;;;;3.97;3.50;;;18.10;90.40;;;;;;5053320;28;20226;-72
2022/10/07 10:07:26;;;;;;;4.07;3.40;;;18.20;90.00;;;;;;5035174;28;20564;-71
2022/10/07 10:10:15;;;;;;;3.55;3.25;;;18.20;90.00;;;;;;5053170;28;20198;-71
2022/10/07 10:12:48;;;;;;;4.15;3.75;;;18.20;90.00;;;;;;5052978;28;20258;-71
2022/10/07 10:15:34;;;;;;;4.15;3.25;;;18.20;90.30;;;;;;5052116;28;20179;-71
2022/10/07 10:18:00;;;;;;;3.70;3.38;;;18.20;90.40;;;;;;5052400;28;20193;-70
2022/10/07 10:20:42;;;;;;;3.80;3.45;;;18.20;90.30;;;;;;5062112;28;20221;-70
2022/10/07 10:23:35;;;;;;;3.63;3.22;;;18.20;90.30;;;;;;5075603;28;20235;-70
2022/10/07 10:26:29;;;;;;;3.63;3.20;;;18.20;90.20;;;;;;5066259;28;20233;-70
2022/10/07 10:29:44;;;;;;;3.90;3.25;;;18.20;90.30;;;;;;5065489;28;20296;-70
2022/10/07 10:32:35;;;;;;;3.25;2.88;;;18.20;90.30;;;;;;5016267;28;20180;-69
2022/10/07 10:35:26;;;;;;;4.43;3.35;;;18.20;90.40;;;;;;5052824;28;20257;-70
2022/10/07 10:38:19;;;;;;;4.47;3.17;;;18.20;90.30;;;;;;5049380;28;20187;-70
2022/10/07 10:41:18;;;;;;;4.25;3.13;;;18.20;90.40;;;;;;5058174;28;20186;-71
2022/10/07 10:43:47;;;;;;;4.72;3.10;;;18.20;90.40;;;;;;5069866;28;20277;-71
2022/10/07 10:46:41;;;;;;;3.45;3.15;;;18.20;90.40;;;;;;5054378;28;20224;-71
2022/10/07 10:50:31;;;;;;;3.78;3.30;;;18.20;90.50;;;;;;5052897;28;20241;-71
2022/10/07 10:53:24;;;;;;;3.17;2.88;;;18.20;90.80;;;;;;4993365;28;20228;-70
2022/10/07 10:56:19;;;;;;;4.07;3.65;;;18.20;90.70;;;;;;5035969;28;20183;-71
2022/10/07 10:58:56;;;;;;;4.05;3.25;;;18.20;90.40;;;;;;5067788;28;20206;-70
2022/10/07 11:01:37;;;;;;;4.75;3.33;;;18.20;90.40;;;;;;5064496;28;20201;-70
2022/10/07 11:04:23;;;;;;;3.63;3.22;;;18.20;90.40;;;;;;5073957;28;20233;-71
2022/10/07 11:06:58;;;;;;;3.42;3.10;;;18.20;90.60;;;;;;5070293;28;20205;-71
2022/10/07 11:09:39;;;;;;;3.50;3.20;;;18.20;90.60;;;;;;5071410;28;20236;-72
2022/10/07 11:12:25;;;;;;;3.92;3.53;;;18.20;90.60;;;;;;5071137;28;20195;-71
2022/10/07 11:14:58;;;;;;;3.78;3.45;;;18.20;90.80;;;;;;5054594;28;20205;-71
2022/10/07 11:17:36;;;;;;;4.20;3.47;;;18.20;90.60;;;;;;5054093;28;20185;-71
2022/10/07 11:20:24;;;;;;;3.30;3.00;;;18.20;90.70;;;;;;5087895;28;20692;-72
2022/10/07 11:23:21;;;;;;;3.90;3.40;;;18.20;90.70;;;;;;5070914;28;20170;-72
2022/10/07 11:26:17;;;;;;;3.35;3.05;;;18.20;90.70;;;;;;5047282;28;20226;-71
2022/10/07 11:28:45;;;;;;;3.88;3.50;;;18.20;90.80;;;;;;5051083;28;20233;-71
2022/10/07 11:31:31;;;;;;;4.10;3.28;;;18.20;90.90;;;;;;5034524;28;20232;-71
2022/10/07 11:34:22;;;;;;;3.38;3.08;;;18.20;90.80;;;;;;5050717;28;20276;-72
2022/10/07 11:37:23;;;;;;;3.60;3.00;;;18.20;90.70;;;;;;5033846;28;20187;-71
2022/10/07 11:39:52;;;;;;;4.03;3.45;;;18.20;90.80;;;;;;5050729;28;20205;-71
2022/10/07 11:42:29;;;;;;;4.20;3.42;;;18.20;90.80;;;;;;5050654;28;20194;-72
2022/10/07 11:45:15;;;;;;;3.58;3.10;;;18.20;90.90;;;;;;5051788;28;20213;-71
2022/10/07 11:47:49;;;;;;;3.92;3.53;;;18.20;91.00;;;;;;5050740;28;20202;-72
2022/10/07 11:50:34;;;;;;;3.65;3.20;;;18.20;90.80;;;;;;5051706;28;20210;-71
2022/10/07 11:53:15;;;;;;;4.32;3.38;;;18.20;91.00;;;;;;5084609;28;20196;-71
2022/10/07 11:55:54;;;;;;;3.72;3.38;;;18.20;90.90;;;;;;5070872;28;20193;-72
2022/10/07 11:58:36;;;;;;;3.75;3.38;;;18.20;90.90;;;;;;5070377;28;20188;-71
2022/10/07 12:01:34;;;;;;;4.32;3.22;;;18.20;91.00;;;;;;5070779;28;20235;-72
2022/10/07 12:04:28;;;;;;;6.15;3.67;;;18.20;91.00;;;;;;5078972;28;20607;-72
2022/10/07 12:07:34;;;;;;;3.95;3.65;;;18.20;91.00;;;;;;5053510;28;20197;-72
2022/10/07 12:10:02;;;;;;;3.13;2.83;;;18.20;90.90;;;;;;5053708;28;20301;-71
2022/10/07 12:13:00;;;;;;;3.55;3.22;;;18.20;91.00;;;;;;5053816;28;20194;-71
2022/10/07 12:15:35;;;;;;;4.20;3.38;;;18.20;91.10;;;;;;5052390;28;20194;-72
2022/10/07 12:18:03;;;;;;;4.22;3.33;;;18.20;91.10;;;;;;5090219;28;20174;-72
2022/10/07 12:20:53;;;;;;;3.78;3.38;;;18.20;91.10;;;;;;5075479;28;20201;-71
2022/10/07 12:23:22;;;;;;;4.97;3.25;;;18.30;91.20;;;;;;5057187;28;20185;-72
2022/10/07 12:26:29;;;;;;;4.97;3.10;;;18.20;91.10;;;;;;5059119;28;20299;-71
2022/10/07 12:28:56;;;;;;;3.80;3.00;;;18.20;91.20;;;;;;5070547;28;20222;-71
2022/10/07 12:31:21;;;;;;;3.83;3.28;;;18.30;91.20;;;;;;5073675;28;20271;-71
2022/10/07 12:34:07;;;;;;;4.53;3.33;;;18.20;91.30;;;;;;5056994;28;20182;-74
2022/10/07 12:36:34;;;;;;;3.50;3.20;;;18.30;91.20;;;;;;5057096;28;20196;-74
2022/10/07 12:39:02;;;;;;;5.78;3.38;;;18.30;91.20;;;;;;5073815;28;20201;-74
2022/10/07 12:41:35;;;;;;;3.42;3.13;;;18.30;91.30;;;;;;5057281;28;20194;-73
2022/10/07 12:44:07;;;;;;;3.78;3.47;;;18.30;91.20;;;;;;5079575;28;20200;-72
2022/10/07 12:46:46;;;;;;;4.22;3.42;;;18.30;91.40;;;;;;5072935;28;20222;-72
2022/10/07 12:49:29;;;;;;;3.20;2.90;;;18.20;91.40;;;;;;5090472;28;20288;-72
2022/10/07 12:52:01;;;;;;;4.15;3.00;;;18.30;91.40;;;;;;5074600;28;20166;-72
2022/10/07 12:54:40;;;;;;;5.88;2.85;;;18.30;91.40;;;;;;5056683;28;20189;-73
2022/10/07 12:57:22;;;;;;;4.47;3.13;;;18.30;91.60;;;;;;5073136;28;20173;-73
2022/10/07 13:00:15;;;;;;;3.65;3.30;;;18.20;91.40;;;;;;5074738;28;20202;-72
2022/10/07 13:03:27;;;;;;;5.03;3.40;;;18.30;91.40;;;;;;5056681;28;20193;-72
2022/10/07 13:06:11;;;;;;;3.28;2.97;;;18.20;91.30;;;;;;5073017;28;20217;-71
2022/10/07 13:09:01;;;;;;;3.10;2.80;;;18.30;91.40;;;;;;5056386;28;20233;-72
2022/10/07 13:11:48;;;;;;;4.40;3.33;;;18.20;91.90;;;;;;5056799;28;20185;-72
2022/10/07 13:14:51;;;;;;;5.95;3.38;;;18.30;91.50;;;;;;5073201;28;20189;-73
2022/10/07 13:17:56;;;;;;;4.03;3.38;;;18.30;91.40;;;;;;5082783;28;20205;-72
2022/10/07 13:20:52;;;;;;;3.60;3.25;;;18.30;91.60;;;;;;5056430;28;20242;-72
2022/10/07 13:23:19;;;;;;;3.95;3.17;;;18.30;91.80;;;;;;5072995;28;20185;-71
2022/10/07 13:25:53;;;;;;;5.15;3.30;;;18.30;91.50;;;;;;5072698;28;20213;-72
2022/10/07 13:28:37;;;;;;;3.92;3.30;;;18.30;91.50;;;;;;5072313;28;20174;-72
2022/10/07 13:31:32;;;;;;;4.90;3.40;;;18.30;91.60;;;;;;5072899;28;20182;-72
2022/10/07 13:34:15;;;;;;;4.13;3.35;;;18.30;91.50;;;;;;5052754;28;20198;-73
2022/10/07 13:36:44;;;;;;;4.50;3.63;;;18.30;91.60;;;;;;5069407;28;20236;-73
2022/10/07 13:39:21;;;;;;;4.05;3.22;;;18.30;91.60;;;;;;5054198;28;20210;-72